createdAt,value
2017-12-13T00:02:10.871Z,5.21
2017-12-13T00:04:38.603Z,5.17
2017-12-13T00:07:06.226Z,5.21
2017-12-13T00:09:33.896Z,5.15
2017-12-13T00:12:01.559Z,5.09
2017-12-13T00:14:29.185Z,5.07
2017-12-13T00:16:56.807Z,5.16
2017-12-13T00:19:24.471Z,5.21
2017-12-13T00:21:52.084Z,5.24
2017-12-13T00:24:19.759Z,5.27
2017-12-13T00:26:47.466Z,5.26
2017-12-13T00:29:15.169Z,5.31
2017-12-13T00:31:42.855Z,5.28
2017-12-13T00:34:10.520Z,5.32
2017-12-13T00:36:38.140Z,5.33
2017-12-13T00:39:05.760Z,5.45
2017-12-13T00:41:33.480Z,5.43
2017-12-13T00:44:01.108Z,5.41
2017-12-13T00:46:28.728Z,5.39
2017-12-13T00:48:56.455Z,5.34
2017-12-13T00:51:24.075Z,5.31
2017-12-13T00:53:51.694Z,5.24
2017-12-13T00:56:19.428Z,5.18
2017-12-13T00:58:47.056Z,5.17
2017-12-13T01:01:14.683Z,5.15
2017-12-13T01:03:42.431Z,5.07
2017-12-13T01:06:10.046Z,5.06
2017-12-13T01:08:37.674Z,5.03
2017-12-13T01:11:05.419Z,5.00
2017-12-13T01:13:33.026Z,4.95
2017-12-13T01:16:00.642Z,4.85
2017-12-13T01:18:28.315Z,4.82
2017-12-13T01:20:55.943Z,4.78
2017-12-13T01:23:23.629Z,4.66
2017-12-13T01:25:51.295Z,4.68
2017-12-13T01:28:18.928Z,4.63
2017-12-13T01:30:46.551Z,4.61
2017-12-13T01:33:14.227Z,4.55
2017-12-13T01:35:53.727Z,4.54
2017-12-13T01:38:21.395Z,4.58
2017-12-13T01:40:49.019Z,4.47
2017-12-13T01:43:16.695Z,4.52
2017-12-13T01:45:44.388Z,4.52
2017-12-13T01:48:12.011Z,4.61
2017-12-13T01:50:39.700Z,4.67
2017-12-13T01:53:07.439Z,4.66
2017-12-13T01:55:35.059Z,4.60
2017-12-13T01:58:02.676Z,4.57
2017-12-13T02:00:30.339Z,4.54
2017-12-13T02:02:58.015Z,4.49
2017-12-13T02:05:25.627Z,4.46
2017-12-13T02:07:53.312Z,4.45
2017-12-13T02:10:20.991Z,4.46
2017-12-13T02:12:48.604Z,4.43
2017-12-13T02:15:16.275Z,4.38
2017-12-13T02:17:43.887Z,4.33
2017-12-13T02:20:11.503Z,4.38
2017-12-13T02:22:39.248Z,4.34
2017-12-13T02:25:06.875Z,4.25
2017-12-13T02:27:34.551Z,4.29
2017-12-13T02:30:02.224Z,4.30
2017-12-13T02:32:29.830Z,4.28
2017-12-13T02:34:57.463Z,4.21
2017-12-13T02:37:25.127Z,4.22
2017-12-13T02:40:04.535Z,4.17
2017-12-13T02:42:32.203Z,4.20
2017-12-13T02:44:59.881Z,4.22
2017-12-13T02:47:27.506Z,4.30
2017-12-13T02:49:55.179Z,4.38
2017-12-13T02:52:22.803Z,4.36
2017-12-13T02:54:50.545Z,4.32
2017-12-13T02:57:18.219Z,4.33
2017-12-13T02:59:45.973Z,4.27
2017-12-13T03:02:13.614Z,4.19
2017-12-13T03:04:41.344Z,4.30
2017-12-13T03:07:08.979Z,4.35
2017-12-13T03:09:36.611Z,4.40
2017-12-13T03:12:04.356Z,4.39
2017-12-13T03:14:31.979Z,4.37
2017-12-13T03:16:59.656Z,4.36
2017-12-13T03:19:27.392Z,4.21
2017-12-13T03:21:55.076Z,4.15
2017-12-13T03:24:22.756Z,4.25
2017-12-13T03:26:50.491Z,4.25
2017-12-13T03:29:18.100Z,4.25
2017-12-13T03:31:45.768Z,4.22
2017-12-13T03:34:13.505Z,4.23
2017-12-13T03:36:41.127Z,4.17
2017-12-13T03:39:08.791Z,4.14
2017-12-13T03:41:36.455Z,4.07
2017-12-13T03:44:04.070Z,3.99
2017-12-13T03:46:31.683Z,3.91
2017-12-13T03:48:59.358Z,3.86
2017-12-13T03:51:26.963Z,3.69
2017-12-13T03:53:54.595Z,3.72
2017-12-13T03:56:22.263Z,3.73
2017-12-13T03:58:49.880Z,3.72
2017-12-13T04:01:17.495Z,3.77
2017-12-13T04:03:45.183Z,3.79
2017-12-13T04:06:12.820Z,3.74
2017-12-13T04:08:40.483Z,3.76
2017-12-13T04:11:08.142Z,3.80
2017-12-13T04:13:35.752Z,3.88
2017-12-13T04:16:03.439Z,3.85
2017-12-13T04:18:31.103Z,3.81
2017-12-13T04:20:58.715Z,3.88
2017-12-13T04:23:26.384Z,3.91
2017-12-13T04:25:54.075Z,3.93
2017-12-13T04:28:21.739Z,3.94
2017-12-13T04:30:49.407Z,3.93
2017-12-13T04:33:17.063Z,3.96
2017-12-13T04:35:44.732Z,3.98
2017-12-13T04:38:12.342Z,3.95
2017-12-13T04:40:40.028Z,3.87
2017-12-13T04:43:07.699Z,3.78
2017-12-13T04:45:35.321Z,3.72
2017-12-13T04:48:02.990Z,3.68
2017-12-13T04:50:30.596Z,3.61
2017-12-13T04:52:58.220Z,3.59
2017-12-13T04:55:25.902Z,3.56
2017-12-13T04:57:53.520Z,3.55
2017-12-13T05:00:21.147Z,3.55
2017-12-13T05:02:48.818Z,3.52
2017-12-13T05:05:16.496Z,3.54
2017-12-13T05:07:44.108Z,3.58
2017-12-13T05:10:11.805Z,3.60
2017-12-13T05:12:39.419Z,3.53
2017-12-13T05:15:07.038Z,3.62
2017-12-13T05:17:34.727Z,3.70
2017-12-13T05:20:02.358Z,3.70
2017-12-13T05:22:30.059Z,3.71
2017-12-13T05:24:57.731Z,3.74
2017-12-13T05:27:25.347Z,3.80
2017-12-13T05:29:53.019Z,3.85
2017-12-13T05:32:20.698Z,4.00
2017-12-13T05:34:48.315Z,4.05
2017-12-13T05:37:15.943Z,4.13
2017-12-13T05:39:43.614Z,4.20
2017-12-13T05:42:11.296Z,4.21
2017-12-13T05:44:38.932Z,4.24
2017-12-13T05:47:06.668Z,4.29
2017-12-13T05:49:34.288Z,4.31
2017-12-13T05:52:01.907Z,4.31
2017-12-13T05:54:29.607Z,4.30
2017-12-13T05:56:57.299Z,4.35
2017-12-13T05:59:24.971Z,4.40
2017-12-13T06:01:52.629Z,4.40
2017-12-13T06:04:20.321Z,4.35
2017-12-13T06:06:47.946Z,4.33
2017-12-13T06:09:15.629Z,4.33
2017-12-13T06:11:43.243Z,4.38
2017-12-13T06:14:10.923Z,4.46
2017-12-13T06:16:38.615Z,4.54
2017-12-13T06:19:06.231Z,4.62
2017-12-13T06:21:33.941Z,4.76
2017-12-13T06:24:01.619Z,4.91
2017-12-13T06:26:29.247Z,5.07
2017-12-13T06:28:56.863Z,5.20
2017-12-13T06:31:24.595Z,5.27
2017-12-13T06:33:52.283Z,5.39
2017-12-13T06:36:19.906Z,5.61
2017-12-13T06:38:47.579Z,5.78
2017-12-13T06:41:15.191Z,5.91
2017-12-13T06:43:42.880Z,6.11
2017-12-13T06:46:10.557Z,6.31
2017-12-13T06:48:38.175Z,6.48
2017-12-13T06:51:05.847Z,6.62
2017-12-13T06:53:33.580Z,6.69
2017-12-13T06:56:01.255Z,6.77
2017-12-13T06:58:28.928Z,6.86
2017-12-13T07:00:56.599Z,6.79
2017-12-13T07:03:24.218Z,6.88
2017-12-13T07:05:51.834Z,7.02
2017-12-13T07:08:19.555Z,7.17
2017-12-13T07:10:47.162Z,7.24
2017-12-13T07:13:14.792Z,7.31
2017-12-13T07:15:42.463Z,7.33
2017-12-13T07:18:10.087Z,7.39
2017-12-13T07:20:37.715Z,7.43
2017-12-13T07:23:05.402Z,7.51
2017-12-13T07:25:33.019Z,7.56
2017-12-13T07:28:00.657Z,7.62
2017-12-13T07:30:28.330Z,7.66
2017-12-13T07:32:55.947Z,7.58
2017-12-13T07:35:23.566Z,7.55
2017-12-13T07:37:51.288Z,7.76
2017-12-13T07:40:18.906Z,7.89
2017-12-13T07:42:46.510Z,8.08
2017-12-13T07:45:14.183Z,8.26
2017-12-13T07:47:41.806Z,8.45
2017-12-13T07:50:09.411Z,8.60
2017-12-13T07:52:37.139Z,8.73
2017-12-13T07:55:04.759Z,8.85
2017-12-13T07:57:32.435Z,8.97
2017-12-13T08:00:00.156Z,8.88
2017-12-13T08:02:27.832Z,8.84
2017-12-13T08:04:55.570Z,8.96
2017-12-13T08:07:23.290Z,9.06
2017-12-13T08:09:50.909Z,9.10
2017-12-13T08:12:18.527Z,9.20
2017-12-13T08:14:46.195Z,9.25
2017-12-13T08:17:13.890Z,9.31
2017-12-13T08:19:41.568Z,9.37
2017-12-13T08:22:09.299Z,9.47
2017-12-13T08:24:36.940Z,9.53
2017-12-13T08:27:04.556Z,9.68
2017-12-13T08:29:32.231Z,10.06
2017-12-13T08:31:59.911Z,10.29
2017-12-13T08:34:27.600Z,10.41
2017-12-13T08:36:55.367Z,10.50
2017-12-13T08:39:23.041Z,10.61
2017-12-13T08:41:50.661Z,10.70
2017-12-13T08:44:18.336Z,10.96
2017-12-13T08:46:45.959Z,11.19
2017-12-13T08:49:13.636Z,11.60
2017-12-13T08:51:41.403Z,12.22
2017-12-13T08:54:09.034Z,12.76
2017-12-13T08:56:36.646Z,13.17
2017-12-13T08:59:04.326Z,13.37
2017-12-13T09:01:31.943Z,13.48
2017-12-13T09:03:59.626Z,13.56
2017-12-13T09:06:27.299Z,13.98
2017-12-13T09:08:54.988Z,14.33
2017-12-13T09:11:22.610Z,14.34
2017-12-13T09:13:50.355Z,14.37
2017-12-13T09:16:17.967Z,14.57
2017-12-13T09:18:45.645Z,14.56
2017-12-13T09:21:13.315Z,14.54
2017-12-13T09:23:40.940Z,14.49
2017-12-13T09:26:08.553Z,14.57
2017-12-13T09:28:36.354Z,14.50
2017-12-13T09:31:04.039Z,14.77
2017-12-13T09:33:31.663Z,15.62
2017-12-13T09:36:00.423Z,16.23
2017-12-13T09:38:28.031Z,16.43
2017-12-13T09:40:55.646Z,16.62
2017-12-13T09:43:23.320Z,17.00
2017-12-13T09:45:50.992Z,17.45
2017-12-13T09:48:18.625Z,17.51
2017-12-13T09:50:46.295Z,17.43
2017-12-13T09:53:13.972Z,17.38
2017-12-13T09:55:41.592Z,17.20
2017-12-13T09:58:09.336Z,17.50
2017-12-13T10:00:37.062Z,17.65
2017-12-13T10:03:04.684Z,18.00
2017-12-13T10:05:32.355Z,18.45
2017-12-13T10:07:59.971Z,18.52
2017-12-13T10:10:27.584Z,18.68
2017-12-13T10:12:55.253Z,18.66
2017-12-13T10:15:22.864Z,18.69
2017-12-13T10:17:50.475Z,18.79
2017-12-13T10:20:18.127Z,18.90
2017-12-13T10:22:45.739Z,19.24
2017-12-13T10:25:13.348Z,19.69
2017-12-13T10:27:41.035Z,19.90
2017-12-13T10:30:08.709Z,19.79
2017-12-13T10:32:36.335Z,19.08
2017-12-13T10:35:04.062Z,18.68
2017-12-13T10:37:31.683Z,18.53
2017-12-13T10:39:59.311Z,18.48
2017-12-13T10:42:26.987Z,18.46
2017-12-13T10:44:54.608Z,18.16
2017-12-13T10:47:22.239Z,18.30
2017-12-13T10:49:49.975Z,18.22
2017-12-13T10:52:17.595Z,18.40
2017-12-13T10:54:45.267Z,18.61
2017-12-13T10:57:12.999Z,18.90
2017-12-13T10:59:40.614Z,19.04
2017-12-13T11:02:08.335Z,18.67
2017-12-13T11:04:36.014Z,18.69
2017-12-13T11:07:03.645Z,18.53
2017-12-13T11:09:31.343Z,18.50
2017-12-13T11:11:59.037Z,18.32
2017-12-13T11:14:26.671Z,18.06
2017-12-13T11:16:54.287Z,17.97
2017-12-13T11:19:21.964Z,17.70
2017-12-13T11:21:49.645Z,17.56
2017-12-13T11:24:17.319Z,17.52
2017-12-13T11:26:45.001Z,17.54
2017-12-13T11:29:12.668Z,17.62
2017-12-13T11:31:40.295Z,17.97
2017-12-13T11:34:07.963Z,18.10
2017-12-13T11:36:35.656Z,18.17
2017-12-13T11:39:03.342Z,18.08
2017-12-13T11:41:31.068Z,17.71
2017-12-13T11:43:58.747Z,17.42
2017-12-13T11:46:26.378Z,17.36
2017-12-13T11:48:54.055Z,17.33
2017-12-13T11:51:21.677Z,17.29
2017-12-13T11:53:49.296Z,17.26
2017-12-13T11:56:17.001Z,17.16
2017-12-13T11:58:44.627Z,16.95
2017-12-13T12:01:12.263Z,16.88
2017-12-13T12:03:39.931Z,16.93
2017-12-13T12:06:08.424Z,16.98
2017-12-13T12:08:36.026Z,16.83
2017-12-13T12:11:03.768Z,16.89
2017-12-13T12:13:31.386Z,16.77
2017-12-13T12:15:59.090Z,16.71
2017-12-13T12:18:26.765Z,16.77
2017-12-13T12:20:54.382Z,16.80
2017-12-13T12:23:22.003Z,16.65
2017-12-13T12:25:49.732Z,16.79
2017-12-13T12:28:17.412Z,16.80
2017-12-13T12:30:45.031Z,16.89
2017-12-13T12:33:12.755Z,16.87
2017-12-13T12:35:40.383Z,16.77
2017-12-13T12:38:08.059Z,16.74
2017-12-13T12:40:35.730Z,16.71
2017-12-13T12:43:03.350Z,16.66
2017-12-13T12:45:30.968Z,16.55
2017-12-13T12:47:58.644Z,16.45
2017-12-13T12:50:26.328Z,16.15
2017-12-13T12:52:54.004Z,16.10
2017-12-13T12:55:21.731Z,15.99
2017-12-13T12:57:49.363Z,15.95
2017-12-13T13:00:16.991Z,15.90
2017-12-13T13:02:44.659Z,15.88
2017-12-13T13:05:12.275Z,15.88
2017-12-13T13:07:39.882Z,15.88
2017-12-13T13:10:07.604Z,15.84
2017-12-13T13:12:35.287Z,15.74
2017-12-13T13:15:02.964Z,15.67
2017-12-13T13:17:30.635Z,15.49
2017-12-13T13:19:58.259Z,15.49
2017-12-13T13:22:25.899Z,15.44
2017-12-13T13:24:53.571Z,15.39
2017-12-13T13:27:21.252Z,15.30
2017-12-13T13:29:48.879Z,15.23
2017-12-13T13:32:16.633Z,15.14
2017-12-13T13:34:44.321Z,15.07
2017-12-13T13:37:11.995Z,14.95
2017-12-13T13:39:39.667Z,14.87
2017-12-13T13:42:07.348Z,14.77
2017-12-13T13:44:34.956Z,14.63
2017-12-13T13:47:02.647Z,14.50
2017-12-13T13:49:30.284Z,14.41
2017-12-13T13:51:57.911Z,14.19
2017-12-13T13:54:25.577Z,14.07
2017-12-13T13:56:53.275Z,13.97
2017-12-13T13:59:20.906Z,13.91
2017-12-13T14:01:48.577Z,13.76
2017-12-13T14:04:16.199Z,13.56
2017-12-13T14:06:43.828Z,13.43
2017-12-13T14:09:11.556Z,13.39
2017-12-13T14:11:39.191Z,13.32
2017-12-13T14:14:06.808Z,13.25
2017-12-13T14:16:34.546Z,13.20
2017-12-13T14:19:02.223Z,13.17
2017-12-13T14:21:29.907Z,13.10
2017-12-13T14:23:57.651Z,13.00
2017-12-13T14:26:25.278Z,12.87
2017-12-13T14:28:52.914Z,12.71
2017-12-13T14:31:20.657Z,12.57
2017-12-13T14:33:48.286Z,12.54
2017-12-13T14:36:15.910Z,12.47
2017-12-13T14:38:43.575Z,12.34
2017-12-13T14:41:11.206Z,12.21
2017-12-13T14:43:38.908Z,12.12
2017-12-13T14:46:06.644Z,12.02
2017-12-13T14:48:34.334Z,11.95
2017-12-13T14:51:01.999Z,11.87
2017-12-13T14:53:29.714Z,11.73
2017-12-13T14:55:57.334Z,11.65
2017-12-13T14:58:24.971Z,11.51
2017-12-13T15:00:52.673Z,11.47
2017-12-13T15:03:20.313Z,11.40
2017-12-13T15:05:47.941Z,11.35
2017-12-13T15:08:15.615Z,11.28
2017-12-13T15:10:43.303Z,11.21
2017-12-13T15:13:10.935Z,11.17
2017-12-13T15:15:38.663Z,11.15
2017-12-13T15:18:06.294Z,11.13
2017-12-13T15:20:33.978Z,11.06
2017-12-13T15:23:01.659Z,11.03
2017-12-13T15:25:29.353Z,10.95
2017-12-13T15:27:57.041Z,10.83
2017-12-13T15:30:24.714Z,10.79
2017-12-13T15:32:52.331Z,10.75
2017-12-13T15:35:20.012Z,10.74
2017-12-13T15:37:47.775Z,10.72
2017-12-13T15:40:15.410Z,10.70
2017-12-13T15:42:43.107Z,10.63
2017-12-13T15:45:10.787Z,10.56
2017-12-13T15:47:38.416Z,10.51
2017-12-13T15:50:06.066Z,10.38
2017-12-13T15:52:33.734Z,10.38
2017-12-13T15:55:01.356Z,10.40
2017-12-13T15:57:28.981Z,10.37
2017-12-13T15:59:56.721Z,10.22
2017-12-13T16:02:24.408Z,10.16
2017-12-13T16:04:52.091Z,10.16
2017-12-13T16:07:19.844Z,10.12
2017-12-13T16:09:47.519Z,10.04
2017-12-13T16:12:15.151Z,9.88
2017-12-13T16:14:42.915Z,9.78
2017-12-13T16:17:10.531Z,9.82
2017-12-13T16:19:38.147Z,9.82
2017-12-13T16:22:05.947Z,9.81
2017-12-13T16:24:33.583Z,9.69
2017-12-13T16:27:01.215Z,9.67
2017-12-13T16:29:28.907Z,9.65
2017-12-13T16:31:56.571Z,9.64
2017-12-13T16:34:24.211Z,9.59
2017-12-13T16:36:51.939Z,9.58
2017-12-13T16:39:19.560Z,9.60
2017-12-13T16:41:47.175Z,9.58
2017-12-13T16:44:14.872Z,9.70
2017-12-13T16:46:42.515Z,9.73
2017-12-13T16:49:10.195Z,9.67
2017-12-13T16:51:37.927Z,9.61
2017-12-13T16:54:05.548Z,9.58
2017-12-13T16:56:33.168Z,9.64
2017-12-13T16:59:00.845Z,9.64
2017-12-13T17:01:28.528Z,9.67
2017-12-13T17:03:56.152Z,9.67
2017-12-13T17:06:23.888Z,9.63
2017-12-13T17:08:51.510Z,9.65
2017-12-13T17:11:19.138Z,9.71
2017-12-13T17:13:46.836Z,9.74
2017-12-13T17:16:14.515Z,9.72
2017-12-13T17:18:42.145Z,9.68
2017-12-13T17:21:09.830Z,9.63
2017-12-13T17:23:37.457Z,9.55
2017-12-13T17:26:05.151Z,9.46
2017-12-13T17:28:32.831Z,9.42
2017-12-13T17:31:00.462Z,9.45
2017-12-13T17:33:28.099Z,9.47
2017-12-13T17:35:55.810Z,9.45
2017-12-13T17:38:23.497Z,9.52
2017-12-13T17:40:51.206Z,9.50
2017-12-13T17:43:18.948Z,9.50
2017-12-13T17:45:46.640Z,9.57
2017-12-13T17:48:14.263Z,9.58
2017-12-13T17:50:41.961Z,9.48
2017-12-13T17:53:09.649Z,9.51
2017-12-13T17:55:37.304Z,9.51
2017-12-13T17:58:04.996Z,9.53
2017-12-13T18:00:32.675Z,9.60
2017-12-13T18:03:00.357Z,9.58
2017-12-13T18:05:28.039Z,9.59
2017-12-13T18:07:55.662Z,9.60
2017-12-13T18:10:23.336Z,9.61
2017-12-13T18:12:51.017Z,9.61
2017-12-13T18:15:18.663Z,9.64
2017-12-13T18:17:46.279Z,9.55
2017-12-13T18:20:14.036Z,9.50
2017-12-13T18:22:41.690Z,9.45
2017-12-13T18:25:09.311Z,9.38
2017-12-13T18:27:37.071Z,9.37
2017-12-13T18:30:04.717Z,9.35
2017-12-13T18:32:32.475Z,9.37
2017-12-13T18:35:00.156Z,9.37
2017-12-13T18:37:27.823Z,9.36
2017-12-13T18:39:55.453Z,9.30
2017-12-13T18:42:23.198Z,9.29
2017-12-13T18:44:50.822Z,9.29
2017-12-13T18:47:18.447Z,9.23
2017-12-13T18:49:46.198Z,9.20
2017-12-13T18:52:13.831Z,9.17
2017-12-13T18:54:41.475Z,9.22
2017-12-13T18:57:09.221Z,9.24
2017-12-13T18:59:36.967Z,9.22
2017-12-13T19:02:04.583Z,9.22
2017-12-13T19:04:32.307Z,9.17
2017-12-13T19:07:00.000Z,9.17
2017-12-13T19:09:27.632Z,9.18
2017-12-13T19:11:55.388Z,9.23
2017-12-13T19:14:23.073Z,9.25
2017-12-13T19:16:50.754Z,9.25
2017-12-13T19:19:18.475Z,9.22
2017-12-13T19:21:46.156Z,9.22
2017-12-13T19:24:13.833Z,9.26
2017-12-13T19:26:41.564Z,9.30
2017-12-13T19:29:09.276Z,9.39
2017-12-13T19:31:36.902Z,9.45
2017-12-13T19:34:04.682Z,9.42
2017-12-13T19:36:32.379Z,9.45
2017-12-13T19:39:00.012Z,9.57
2017-12-13T19:41:27.770Z,9.60
2017-12-13T19:43:55.385Z,9.57
2017-12-13T19:46:23.019Z,9.59
2017-12-13T19:48:50.708Z,9.61
2017-12-13T19:51:18.333Z,9.69
2017-12-13T19:53:45.947Z,9.78
2017-12-13T19:56:13.700Z,9.82
2017-12-13T19:58:41.319Z,9.87
2017-12-13T20:01:08.979Z,9.93
2017-12-13T20:03:36.682Z,9.89
2017-12-13T20:06:04.312Z,9.90
2017-12-13T20:08:31.931Z,9.80
2017-12-13T20:10:59.684Z,9.67
2017-12-13T20:13:27.300Z,9.72
2017-12-13T20:15:54.936Z,9.67
2017-12-13T20:18:22.678Z,9.73
2017-12-13T20:20:50.365Z,9.72
2017-12-13T20:23:17.996Z,9.70
2017-12-13T20:25:45.696Z,9.74
2017-12-13T20:28:13.310Z,9.64
2017-12-13T20:30:40.911Z,9.65
2017-12-13T20:33:08.640Z,9.74
2017-12-13T20:35:36.319Z,9.75
2017-12-13T20:38:03.936Z,9.72
2017-12-13T20:40:31.665Z,9.65
2017-12-13T20:42:59.345Z,9.62
2017-12-13T20:45:27.032Z,9.48
2017-12-13T20:47:54.718Z,9.40
2017-12-13T20:50:22.331Z,9.33
2017-12-13T20:52:49.948Z,9.30
2017-12-13T20:55:17.628Z,9.25
2017-12-13T20:57:45.316Z,9.26
2017-12-13T21:00:12.932Z,9.18
2017-12-13T21:02:40.642Z,9.20
2017-12-13T21:05:08.254Z,9.19
2017-12-13T21:07:35.871Z,9.21
2017-12-13T21:10:03.546Z,9.27
2017-12-13T21:12:31.241Z,9.26
2017-12-13T21:14:58.863Z,9.31
2017-12-13T21:17:26.561Z,9.38
2017-12-13T21:19:54.237Z,9.43
2017-12-13T21:22:21.868Z,9.49
2017-12-13T21:24:49.543Z,9.53
2017-12-13T21:27:17.146Z,9.78
2017-12-13T21:29:44.768Z,10.02
2017-12-13T21:32:12.444Z,9.95
2017-12-13T21:34:40.059Z,9.84
2017-12-13T21:37:07.729Z,9.72
2017-12-13T21:39:35.419Z,9.78
2017-12-13T21:42:03.034Z,9.82
2017-12-13T21:44:30.703Z,10.01
2017-12-13T21:46:58.368Z,10.11
2017-12-13T21:49:26.059Z,10.25
2017-12-13T21:51:53.665Z,10.31
2017-12-13T21:54:21.402Z,10.43
2017-12-13T21:56:49.084Z,10.46
2017-12-13T21:59:16.772Z,10.51
2017-12-13T22:01:44.496Z,10.51
2017-12-13T22:04:12.117Z,10.49
2017-12-13T22:06:39.810Z,10.50
2017-12-13T22:09:07.467Z,10.46
2017-12-13T22:11:35.084Z,10.39
2017-12-13T22:14:02.709Z,10.37
2017-12-13T22:16:30.375Z,10.35
2017-12-13T22:18:58.042Z,10.28
2017-12-13T22:21:25.711Z,10.20
2017-12-13T22:23:53.375Z,10.19
2017-12-13T22:26:20.987Z,10.03
2017-12-13T22:28:48.610Z,10.02
2017-12-13T22:31:16.286Z,10.00
2017-12-13T22:33:43.904Z,9.89
2017-12-13T22:36:11.514Z,9.86
2017-12-13T22:38:39.195Z,9.77
2017-12-13T22:41:06.825Z,9.72
2017-12-13T22:43:34.436Z,9.66
2017-12-13T22:46:02.192Z,9.59
2017-12-13T22:48:29.817Z,9.58
2017-12-13T22:50:57.537Z,9.54
2017-12-13T22:53:25.244Z,9.56
2017-12-13T22:55:52.980Z,9.49
2017-12-13T22:58:20.595Z,9.48
2017-12-13T23:00:52.173Z,9.48
2017-12-13T23:03:19.796Z,9.55
2017-12-13T23:05:47.492Z,9.49
2017-12-13T23:08:15.172Z,9.49
2017-12-13T23:10:42.793Z,9.46
2017-12-13T23:13:10.472Z,9.47
2017-12-13T23:15:38.140Z,9.44
2017-12-13T23:18:05.807Z,9.47
2017-12-13T23:20:33.478Z,9.44
2017-12-13T23:23:01.175Z,9.52
2017-12-13T23:25:28.892Z,9.60
2017-12-13T23:27:56.511Z,9.64
2017-12-13T23:30:24.188Z,9.62
2017-12-13T23:32:51.870Z,9.59
2017-12-13T23:35:19.484Z,9.68
2017-12-13T23:37:47.155Z,9.67
2017-12-13T23:40:14.824Z,9.72
2017-12-13T23:42:42.442Z,9.73
2017-12-13T23:45:10.106Z,9.73
2017-12-13T23:47:37.777Z,9.66
2017-12-13T23:50:05.455Z,9.73
2017-12-13T23:52:33.130Z,9.71
2017-12-13T23:55:00.744Z,9.72
2017-12-13T23:57:28.360Z,9.70
2017-12-13T23:59:56.038Z,9.63
